Terminal Aerodrome Forecast
Issued by NWS

Home | Current Version | Previous Version | Text Only | Print | Product List | Glossary On
Versions: 1 2 3 4 5 6 7 8 9 10 11 12 13 14 15
000
FTUS42 KJAX 162336
TAFCRG
TAF
KCRG 162336Z 1700/1724 06004KT P6SM BKN250
     FM170600 VRB03KT 5SM BR SCT004 BKN010
     FM171200 31007KT P6SM SCT010 BKN040
     FM171800 33012G20KT P6SM SCT020 SCT040=

USA.gov is the U.S. government's official web portal to all federal, state and local government web resources and services.